Terminal Aerodrome Forecast
Issued by NWS Des Moines, IA

Home | Current Version | Previous Version | Text Only | Print | Product List | Glossary On
Versions: 1 2 3 4 5 6 7 8 9 10 11 12 13 14 15 16 17 18 19 20 21 22 23 24 25 26 27 28 29 30 31 32 33 34
000
FTUS43 KDMX 102337
TAFALO
TAF
KALO 102337Z 1100/1124 11009KT 6SM -SN BR FEW009 OVC060
     FM110500 12011G19KT 3SM -SN SCT009 OVC015
     FM110900 13012KT 1SM -SN BKN008 OVC015
     FM111500 16007KT 2SM -SN OVC004
     FM111800 20009KT P6SM OVC008
     FM112100 27011G17KT P6SM OVC004=

USA.gov is the U.S. government's official web portal to all federal, state and local government web resources and services.